createdAt,value
2023-05-10T00:02:01.237Z,15.55
2023-05-10T00:04:33.386Z,15.54
2023-05-10T00:07:05.258Z,15.59
2023-05-10T00:09:36.601Z,15.55
2023-05-10T00:12:07.123Z,15.77
2023-05-10T00:14:36.534Z,15.74
2023-05-10T00:17:06.404Z,15.67
2023-05-10T00:19:35.167Z,15.94
2023-05-10T00:22:04.240Z,15.86
2023-05-10T00:24:34.726Z,15.50
2023-05-10T00:27:17.068Z,15.54
2023-05-10T00:29:50.504Z,15.53
2023-05-10T00:32:21.206Z,15.19
2023-05-10T00:34:52.411Z,15.34
2023-05-10T00:37:29.248Z,15.10
2023-05-10T00:40:04.017Z,15.18
2023-05-10T00:42:32.394Z,15.22
2023-05-10T00:45:06.222Z,15.19
2023-05-10T00:47:35.068Z,14.98
2023-05-10T00:50:05.953Z,14.99
2023-05-10T00:52:42.356Z,15.03
2023-05-10T00:55:13.489Z,15.05
2023-05-10T00:57:41.840Z,15.02
2023-05-10T01:00:20.687Z,15.16
2023-05-10T01:02:50.665Z,15.02
2023-05-10T01:05:27.045Z,14.94
2023-05-10T01:08:01.006Z,14.69
2023-05-10T01:10:31.481Z,14.82
2023-05-10T01:13:04.154Z,14.75
2023-05-10T01:15:36.879Z,14.67
2023-05-10T01:18:07.447Z,14.95
2023-05-10T01:20:45.604Z,14.70
2023-05-10T01:23:33.931Z,14.70
2023-05-10T01:26:30.540Z,14.75
2023-05-10T01:29:41.061Z,14.70
2023-05-10T01:32:21.884Z,14.49
2023-05-10T01:35:02.836Z,14.73
2023-05-10T01:37:44.474Z,14.69
2023-05-10T01:40:22.095Z,14.75
2023-05-10T01:42:55.526Z,14.66
2023-05-10T01:45:34.627Z,14.62
2023-05-10T01:48:08.507Z,14.63
2023-05-10T01:50:45.432Z,14.63
2023-05-10T01:53:19.385Z,14.51
2023-05-10T01:55:51.378Z,14.56
2023-05-10T01:58:25.290Z,14.65
2023-05-10T02:00:55.554Z,14.44
2023-05-10T02:03:29.030Z,14.27
2023-05-10T02:05:59.571Z,14.53
2023-05-10T02:08:31.160Z,14.47
2023-05-10T02:11:01.017Z,14.69
2023-05-10T02:13:32.499Z,14.72
2023-05-10T02:16:06.413Z,14.45
2023-05-10T02:18:44.335Z,14.62
2023-05-10T02:21:16.919Z,14.40
2023-05-10T02:23:47.329Z,14.42
2023-05-10T02:26:18.979Z,14.36
2023-05-10T02:28:47.972Z,14.32
2023-05-10T02:31:17.195Z,14.32
2023-05-10T02:33:55.170Z,14.31
2023-05-10T02:36:24.840Z,14.36
2023-05-10T02:38:56.846Z,14.43
2023-05-10T02:41:29.529Z,14.20
2023-05-10T02:44:01.750Z,14.27
2023-05-10T02:46:34.106Z,14.28
2023-05-10T02:49:05.071Z,14.41
2023-05-10T02:51:40.038Z,14.26
2023-05-10T02:54:14.674Z,14.39
2023-05-10T02:56:49.617Z,14.32
2023-05-10T02:59:20.747Z,14.29
2023-05-10T03:01:52.470Z,14.34
2023-05-10T03:04:23.228Z,14.36
2023-05-10T03:06:52.765Z,14.36
2023-05-10T03:09:26.074Z,14.40
2023-05-10T03:12:03.002Z,14.48
2023-05-10T03:14:47.166Z,14.13
2023-05-10T03:17:29.117Z,14.18
2023-05-10T03:20:04.712Z,14.07
2023-05-10T03:22:37.435Z,14.26
2023-05-10T03:25:09.439Z,14.39
2023-05-10T03:27:44.130Z,14.20
2023-05-10T03:30:14.764Z,14.31
2023-05-10T03:32:49.726Z,14.05
2023-05-10T03:35:21.566Z,14.03
2023-05-10T03:37:51.790Z,14.18
2023-05-10T03:40:20.757Z,14.09
2023-05-10T03:42:49.024Z,13.98
2023-05-10T03:45:20.374Z,14.01
2023-05-10T03:47:48.630Z,14.30
2023-05-10T03:50:21.656Z,14.10
2023-05-10T03:52:56.887Z,14.49
2023-05-10T03:55:27.532Z,14.32
2023-05-10T03:58:00.353Z,14.44
2023-05-10T04:00:29.004Z,14.35
2023-05-10T04:02:58.045Z,14.27
2023-05-10T04:05:32.492Z,14.18
2023-05-10T04:08:02.532Z,14.24
2023-05-10T04:10:31.045Z,14.48
2023-05-10T04:13:09.469Z,14.18
2023-05-10T04:15:38.133Z,14.15
2023-05-10T04:18:09.404Z,14.31
2023-05-10T04:20:41.468Z,14.17
2023-05-10T04:23:16.222Z,14.25
2023-05-10T04:25:44.126Z,14.13
2023-05-10T04:28:12.478Z,14.35
2023-05-10T04:30:41.546Z,14.38
2023-05-10T04:33:10.788Z,14.41
2023-05-10T04:35:43.564Z,14.40
2023-05-10T04:38:12.386Z,14.40
2023-05-10T04:40:41.507Z,14.41
2023-05-10T04:43:10.558Z,14.33
2023-05-10T04:45:40.527Z,14.42
2023-05-10T04:48:12.644Z,14.63
2023-05-10T04:50:46.522Z,14.74
2023-05-10T04:53:16.003Z,14.47
2023-05-10T04:55:44.902Z,14.76
2023-05-10T04:58:15.677Z,14.68
2023-05-10T05:00:46.579Z,14.79
2023-05-10T05:03:15.306Z,14.60
2023-05-10T05:05:49.781Z,14.68
2023-05-10T05:08:21.024Z,14.83
2023-05-10T05:10:51.218Z,14.72
2023-05-10T05:13:19.661Z,14.89
2023-05-10T05:15:50.235Z,14.97
2023-05-10T05:18:19.040Z,14.55
2023-05-10T05:20:52.210Z,14.80
2023-05-10T05:23:22.560Z,14.60
2023-05-10T05:25:55.499Z,14.91
2023-05-10T05:28:25.561Z,14.69
2023-05-10T05:31:03.620Z,14.88
2023-05-10T05:33:32.158Z,14.83
2023-05-10T05:36:02.668Z,14.79
2023-05-10T05:38:32.746Z,14.75
2023-05-10T05:41:01.640Z,14.69
2023-05-10T05:43:30.158Z,14.89
2023-05-10T05:46:12.045Z,14.85
2023-05-10T05:48:40.468Z,14.96
2023-05-10T05:51:10.135Z,15.01
2023-05-10T05:53:38.607Z,15.13
2023-05-10T05:56:10.599Z,15.16
2023-05-10T05:58:39.969Z,15.09
2023-05-10T06:01:11.955Z,15.05
2023-05-10T06:03:40.221Z,15.07
2023-05-10T06:06:10.383Z,15.18
2023-05-10T06:08:38.197Z,15.20
2023-05-10T06:11:06.870Z,15.15
2023-05-10T06:13:37.570Z,15.36
2023-05-10T06:16:08.482Z,15.32
2023-05-10T06:18:48.900Z,15.66
2023-05-10T06:21:18.385Z,15.70
2023-05-10T06:23:50.610Z,15.71
2023-05-10T06:26:19.309Z,15.57
2023-05-10T06:28:54.399Z,15.62
2023-05-10T06:31:23.666Z,15.79
2023-05-10T06:34:01.582Z,15.74
2023-05-10T06:36:32.705Z,15.65
2023-05-10T06:39:04.025Z,15.48
2023-05-10T06:41:33.587Z,15.84
2023-05-10T06:44:01.819Z,16.01
2023-05-10T06:46:31.770Z,15.73
2023-05-10T06:49:01.941Z,15.93
2023-05-10T06:51:38.029Z,15.62
2023-05-10T06:54:09.294Z,16.01
2023-05-10T06:56:39.806Z,16.13
2023-05-10T06:59:09.112Z,16.18
2023-05-10T07:01:37.290Z,16.47
2023-05-10T07:04:05.939Z,16.18
2023-05-10T07:06:36.716Z,16.18
2023-05-10T07:09:06.865Z,16.53
2023-05-10T07:11:35.006Z,16.24
2023-05-10T07:14:03.504Z,16.22
2023-05-10T07:16:32.900Z,15.87
2023-05-10T07:19:08.815Z,15.89
2023-05-10T07:21:38.668Z,16.21
2023-05-10T07:24:11.586Z,16.64
2023-05-10T07:26:40.652Z,16.85
2023-05-10T07:29:16.460Z,16.60
2023-05-10T07:31:48.438Z,16.31
2023-05-10T07:34:19.258Z,16.97
2023-05-10T07:36:49.302Z,16.82
2023-05-10T07:39:26.497Z,17.21
2023-05-10T07:41:55.845Z,17.10
2023-05-10T07:44:23.778Z,16.91
2023-05-10T07:46:53.268Z,17.25
2023-05-10T07:49:22.415Z,16.56
2023-05-10T07:51:52.659Z,16.75
2023-05-10T07:54:23.018Z,16.40
2023-05-10T07:56:52.290Z,16.68
2023-05-10T07:59:22.711Z,16.62
2023-05-10T08:01:50.799Z,16.69
2023-05-10T08:04:22.268Z,17.73
2023-05-10T08:06:55.985Z,17.77
2023-05-10T08:09:25.158Z,18.01
2023-05-10T08:11:54.857Z,17.64
2023-05-10T08:14:23.033Z,17.21
2023-05-10T08:16:53.566Z,17.60
2023-05-10T08:19:23.429Z,18.02
2023-05-10T08:21:53.610Z,18.53
2023-05-10T08:24:24.133Z,17.97
2023-05-10T08:26:52.717Z,18.26
2023-05-10T08:29:22.508Z,18.86
2023-05-10T08:31:52.020Z,18.72
2023-05-10T08:34:23.623Z,18.87
2023-05-10T08:36:53.828Z,18.42
2023-05-10T08:39:30.418Z,18.77
2023-05-10T08:42:04.724Z,19.50
2023-05-10T08:44:37.554Z,19.77
2023-05-10T08:47:08.067Z,18.74
2023-05-10T08:49:40.780Z,18.56
2023-05-10T08:52:10.148Z,18.41
2023-05-10T08:54:41.817Z,18.56
2023-05-10T08:57:11.705Z,18.37
2023-05-10T08:59:41.504Z,18.33
2023-05-10T09:02:12.605Z,19.29
2023-05-10T09:04:40.896Z,18.47
2023-05-10T09:07:08.993Z,18.54
2023-05-10T09:09:39.799Z,18.46
2023-05-10T09:12:12.111Z,18.16
2023-05-10T09:14:40.916Z,18.29
2023-05-10T09:17:10.802Z,18.35
2023-05-10T09:19:41.264Z,18.03
2023-05-10T09:22:09.498Z,18.59
2023-05-10T09:24:43.702Z,19.07
2023-05-10T09:27:20.764Z,18.75
2023-05-10T09:29:49.092Z,19.56
2023-05-10T09:32:19.674Z,19.21
2023-05-10T09:34:48.268Z,18.69
2023-05-10T09:37:19.311Z,19.32
2023-05-10T09:39:49.490Z,19.63
2023-05-10T09:42:21.893Z,19.69
2023-05-10T09:44:50.692Z,19.75
2023-05-10T09:47:19.968Z,19.21
2023-05-10T09:49:56.367Z,18.35
2023-05-10T09:52:27.396Z,17.24
2023-05-10T09:54:56.997Z,17.22
2023-05-10T09:57:35.325Z,17.66
2023-05-10T10:00:05.805Z,18.13
2023-05-10T10:02:38.323Z,18.28
2023-05-10T10:05:08.283Z,18.85
2023-05-10T10:07:37.279Z,19.70
2023-05-10T10:10:12.665Z,19.92
2023-05-10T10:12:43.640Z,19.44
2023-05-10T10:15:14.059Z,20.33
2023-05-10T10:17:46.779Z,19.74
2023-05-10T10:20:18.036Z,18.09
2023-05-10T10:22:46.933Z,18.37
2023-05-10T10:25:18.422Z,17.55
2023-05-10T10:28:01.152Z,17.46
2023-05-10T10:30:41.286Z,17.35
2023-05-10T10:33:33.186Z,17.04
2023-05-10T10:36:12.248Z,16.90
2023-05-10T10:39:10.981Z,17.74
2023-05-10T10:41:44.796Z,18.30
2023-05-10T10:44:37.406Z,17.95
2023-05-10T10:47:15.105Z,18.37
2023-05-10T10:49:52.974Z,18.82
2023-05-10T10:52:29.584Z,19.12
2023-05-10T10:55:04.131Z,18.94
2023-05-10T10:57:47.862Z,18.10
2023-05-10T11:00:39.296Z,18.53
2023-05-10T11:03:09.125Z,18.11
2023-05-10T11:05:41.720Z,18.86
2023-05-10T11:08:14.396Z,19.01
2023-05-10T11:10:52.925Z,19.17
2023-05-10T11:13:40.275Z,19.34
2023-05-10T11:16:17.192Z,19.40
2023-05-10T11:18:58.890Z,19.51
2023-05-10T11:21:28.570Z,19.45
2023-05-10T11:23:58.484Z,19.70
2023-05-10T11:26:29.450Z,19.80
2023-05-10T11:29:00.195Z,19.62
2023-05-10T11:31:29.728Z,19.65
2023-05-10T11:34:02.942Z,20.05
2023-05-10T11:36:35.625Z,20.90
2023-05-10T11:39:05.487Z,20.74
2023-05-10T11:41:34.672Z,21.12
2023-05-10T11:44:04.579Z,20.91
2023-05-10T11:46:33.730Z,21.29
2023-05-10T11:49:08.141Z,21.32
2023-05-10T11:51:38.106Z,21.30
2023-05-10T11:54:11.050Z,20.73
2023-05-10T11:56:41.467Z,19.28
2023-05-10T11:59:11.177Z,19.00
2023-05-10T12:01:40.093Z,19.06
2023-05-10T12:04:16.772Z,18.40
2023-05-10T12:06:47.982Z,18.19
2023-05-10T12:09:31.861Z,18.03
2023-05-10T12:12:09.060Z,18.07
2023-05-10T12:14:40.277Z,18.25
2023-05-10T12:17:08.829Z,18.05
2023-05-10T12:19:41.008Z,17.65
2023-05-10T12:22:09.337Z,17.62
2023-05-10T12:24:41.026Z,17.83
2023-05-10T12:27:15.544Z,18.12
2023-05-10T12:29:47.987Z,18.30
2023-05-10T12:32:18.346Z,18.94
2023-05-10T12:34:49.646Z,19.06
2023-05-10T12:37:17.456Z,19.42
2023-05-10T12:39:48.810Z,20.36
2023-05-10T12:42:17.363Z,20.74
2023-05-10T12:44:48.407Z,21.06
2023-05-10T12:47:18.757Z,21.47
2023-05-10T12:49:48.524Z,20.88
2023-05-10T12:52:16.619Z,20.98
2023-05-10T12:54:45.433Z,20.55
2023-05-10T12:57:20.410Z,21.21
2023-05-10T12:59:53.594Z,21.52
2023-05-10T13:02:24.388Z,22.70
2023-05-10T13:04:53.743Z,22.20
2023-05-10T13:07:22.633Z,22.64
2023-05-10T13:09:50.798Z,21.99
2023-05-10T13:12:19.025Z,21.63
2023-05-10T13:14:48.603Z,22.21
2023-05-10T13:17:18.304Z,21.96
2023-05-10T13:19:48.235Z,21.96
2023-05-10T13:22:28.641Z,21.76
2023-05-10T13:25:05.872Z,22.57
2023-05-10T13:27:35.159Z,21.20
2023-05-10T13:30:29.845Z,21.93
2023-05-10T13:33:02.670Z,22.00
2023-05-10T13:35:32.496Z,22.37
2023-05-10T13:38:03.885Z,22.37
2023-05-10T13:40:32.297Z,22.35
2023-05-10T13:43:01.509Z,22.34
2023-05-10T13:45:31.379Z,22.62
2023-05-10T13:48:08.403Z,22.70
2023-05-10T13:50:36.763Z,23.35
2023-05-10T13:53:04.918Z,25.08
2023-05-10T13:55:34.576Z,25.43
2023-05-10T13:58:04.151Z,27.20
2023-05-10T14:00:34.766Z,25.91
2023-05-10T14:03:15.672Z,26.01
2023-05-10T14:05:46.939Z,24.47
2023-05-10T14:08:15.832Z,23.15
2023-05-10T14:10:44.338Z,23.68
2023-05-10T14:13:14.768Z,23.90
2023-05-10T14:15:43.727Z,24.61
2023-05-10T14:18:14.193Z,24.54
2023-05-10T14:20:44.353Z,25.15
2023-05-10T14:23:13.603Z,24.58
2023-05-10T14:25:42.756Z,25.54
2023-05-10T14:28:13.172Z,24.22
2023-05-10T14:30:42.521Z,23.04
2023-05-10T14:33:12.548Z,22.86
2023-05-10T14:35:42.844Z,23.43
2023-05-10T14:38:11.796Z,24.05
2023-05-10T14:40:40.152Z,23.53
2023-05-10T14:43:08.561Z,22.23
2023-05-10T14:45:37.021Z,22.34
2023-05-10T14:48:05.677Z,22.82
2023-05-10T14:50:36.650Z,22.72
2023-05-10T14:53:06.651Z,22.62
2023-05-10T14:55:37.931Z,23.14
2023-05-10T14:58:07.185Z,22.59
2023-05-10T15:00:36.424Z,22.42
2023-05-10T15:03:09.612Z,24.43
2023-05-10T15:05:38.789Z,24.85
2023-05-10T15:08:08.196Z,24.40
2023-05-10T15:10:36.570Z,23.80
2023-05-10T15:13:07.242Z,24.95
2023-05-10T15:15:38.546Z,24.78
2023-05-10T15:18:11.428Z,23.75
2023-05-10T15:20:40.978Z,24.64
2023-05-10T15:23:11.336Z,25.86
2023-05-10T15:25:41.592Z,24.86
2023-05-10T15:28:11.234Z,24.64
2023-05-10T15:30:41.513Z,26.18
2023-05-10T15:33:14.431Z,23.94
2023-05-10T15:35:44.806Z,25.41
2023-05-10T15:38:14.761Z,24.36
2023-05-10T15:40:43.459Z,23.95
2023-05-10T15:43:11.563Z,23.76
2023-05-10T15:45:40.650Z,24.14
2023-05-10T15:48:08.735Z,24.55
2023-05-10T15:50:36.752Z,23.90
2023-05-10T15:55:50.562Z,21.22
2023-05-10T15:58:20.214Z,21.27
2023-05-10T16:00:48.352Z,20.96
2023-05-10T16:03:19.175Z,21.26
2023-05-10T16:05:47.687Z,21.34
2023-05-10T16:08:17.866Z,21.64
2023-05-10T16:10:46.985Z,21.51
2023-05-10T16:13:19.363Z,21.19
2023-05-10T16:15:48.510Z,20.52
2023-05-10T16:18:18.959Z,20.96
2023-05-10T16:20:47.395Z,20.26
2023-05-10T16:23:16.339Z,20.51
2023-05-10T16:25:44.225Z,20.53
2023-05-10T16:28:20.984Z,20.15
2023-05-10T16:30:52.067Z,20.84
2023-05-10T16:33:19.932Z,20.89
2023-05-10T16:35:47.806Z,21.00
2023-05-10T16:38:16.666Z,20.80
2023-05-10T16:40:44.890Z,20.36
2023-05-10T16:43:15.550Z,20.70
2023-05-10T16:45:45.336Z,20.41
2023-05-10T16:48:16.383Z,20.18
2023-05-10T16:50:47.801Z,19.96
2023-05-10T16:53:18.402Z,19.68
2023-05-10T16:55:47.987Z,19.91
2023-05-10T16:58:18.727Z,19.82
2023-05-10T17:00:48.773Z,19.78
2023-05-10T17:03:18.807Z,19.85
2023-05-10T17:05:47.017Z,19.61
2023-05-10T17:08:20.906Z,19.53
2023-05-10T17:10:49.674Z,19.52
2023-05-10T17:13:19.773Z,19.96
2023-05-10T17:15:49.656Z,19.53
2023-05-10T17:18:23.471Z,19.34
2023-05-10T17:20:55.319Z,19.17
2023-05-10T17:23:25.433Z,19.22
2023-05-10T17:25:53.745Z,19.35
2023-05-10T17:28:22.907Z,19.26
2023-05-10T17:30:59.538Z,19.23
2023-05-10T17:33:29.149Z,19.23
2023-05-10T17:35:57.411Z,19.12
2023-05-10T17:38:25.798Z,19.07
2023-05-10T17:40:54.076Z,19.05
2023-05-10T17:43:23.508Z,18.86
2023-05-10T17:45:53.250Z,19.06
2023-05-10T17:48:22.999Z,18.92
2023-05-10T17:50:54.790Z,19.09
2023-05-10T17:53:26.582Z,19.04
2023-05-10T17:55:59.347Z,19.03
2023-05-10T17:58:27.993Z,18.97
2023-05-10T18:00:58.393Z,18.86
2023-05-10T18:03:35.948Z,18.87
2023-05-10T18:06:07.974Z,18.71
2023-05-10T18:08:38.543Z,18.57
2023-05-10T18:11:08.860Z,18.63
2023-05-10T18:13:36.903Z,18.30
2023-05-10T18:16:08.797Z,18.39
2023-05-10T18:18:43.568Z,18.30
2023-05-10T18:21:14.589Z,18.34
2023-05-10T18:23:43.491Z,18.28
2023-05-10T18:26:16.177Z,18.76
2023-05-10T18:29:01.498Z,18.24
2023-05-10T18:31:32.099Z,18.11
2023-05-10T18:34:05.868Z,18.50
2023-05-10T18:36:33.978Z,18.09
2023-05-10T18:39:02.329Z,18.01
2023-05-10T18:41:31.907Z,17.98
2023-05-10T18:44:00.750Z,17.91
2023-05-10T18:46:30.557Z,17.80
2023-05-10T18:48:58.604Z,17.86
2023-05-10T18:51:31.576Z,17.67
2023-05-10T18:53:59.487Z,17.66
2023-05-10T18:56:27.742Z,17.70
2023-05-10T18:58:57.691Z,17.50
2023-05-10T19:01:27.138Z,17.89
2023-05-10T19:03:55.686Z,17.35
2023-05-10T19:06:25.195Z,17.20
2023-05-10T19:08:57.644Z,17.11
2023-05-10T19:11:26.320Z,17.17
2023-05-10T19:13:55.052Z,17.02
2023-05-10T19:16:28.869Z,16.95
2023-05-10T19:19:01.917Z,16.97
2023-05-10T19:21:34.252Z,16.92
2023-05-10T19:24:04.118Z,16.80
2023-05-10T19:26:32.276Z,16.81
2023-05-10T19:29:04.836Z,16.72
2023-05-10T19:31:37.624Z,16.62
2023-05-10T19:34:09.252Z,16.58
2023-05-10T19:36:37.703Z,16.46
2023-05-10T19:39:16.297Z,16.51
2023-05-10T19:41:45.738Z,16.34
2023-05-10T19:44:17.444Z,16.17
2023-05-10T19:46:45.835Z,15.91
2023-05-10T19:49:14.630Z,15.70
2023-05-10T19:51:42.811Z,15.45
2023-05-10T19:54:17.273Z,15.65
2023-05-10T19:56:46.454Z,15.60
2023-05-10T19:59:20.660Z,15.60
2023-05-10T20:01:50.164Z,15.53
2023-05-10T20:04:17.984Z,15.47
2023-05-10T20:06:50.910Z,15.37
2023-05-10T20:09:21.818Z,15.32
2023-05-10T20:11:54.233Z,15.16
2023-05-10T20:14:22.715Z,15.14
2023-05-10T20:16:50.918Z,15.22
2023-05-10T20:19:19.529Z,15.23
2023-05-10T20:21:48.345Z,15.29
2023-05-10T20:24:21.008Z,15.36
2023-05-10T20:26:54.010Z,15.51
2023-05-10T20:29:22.340Z,15.21
2023-05-10T20:31:52.811Z,15.15
2023-05-10T20:34:23.215Z,14.93
2023-05-10T20:36:52.104Z,15.21
2023-05-10T20:39:24.917Z,15.25
2023-05-10T20:41:56.045Z,14.97
2023-05-10T20:44:24.209Z,15.13
2023-05-10T20:47:08.786Z,15.08
2023-05-10T20:49:37.920Z,15.04
2023-05-10T20:52:06.649Z,15.03
2023-05-10T20:54:34.902Z,14.94
2023-05-10T20:57:14.693Z,14.99
2023-05-10T20:59:44.427Z,14.86
2023-05-10T21:02:13.895Z,14.90
2023-05-10T21:04:42.218Z,14.81
2023-05-10T21:07:10.363Z,14.81
2023-05-10T21:09:38.546Z,14.78
2023-05-10T21:12:11.287Z,14.63
2023-05-10T21:14:39.168Z,14.75
2023-05-10T21:17:09.163Z,14.68
2023-05-10T21:19:42.379Z,14.71
2023-05-10T21:22:11.250Z,14.68
2023-05-10T21:24:39.318Z,14.66
2023-05-10T21:27:09.108Z,14.56
2023-05-10T21:29:44.550Z,14.59
2023-05-10T21:32:14.259Z,14.79
2023-05-10T21:34:44.062Z,14.76
2023-05-10T21:37:12.256Z,14.80
2023-05-10T21:39:40.525Z,14.65
2023-05-10T21:42:10.760Z,14.79
2023-05-10T21:44:39.888Z,14.62
2023-05-10T21:47:13.903Z,14.65
2023-05-10T21:49:43.003Z,14.39
2023-05-10T21:52:11.996Z,14.34
2023-05-10T21:54:42.806Z,14.55
2023-05-10T21:57:12.241Z,14.37
2023-05-10T21:59:44.435Z,14.06
2023-05-10T22:02:13.142Z,14.35
2023-05-10T22:04:42.984Z,14.38
2023-05-10T22:07:13.034Z,14.36
2023-05-10T22:09:43.412Z,14.24
2023-05-10T22:12:15.836Z,14.09
2023-05-10T22:14:44.494Z,14.04
2023-05-10T22:17:14.344Z,14.08
2023-05-10T22:19:42.454Z,14.07
2023-05-10T22:22:13.255Z,13.90
2023-05-10T22:24:42.504Z,14.10
2023-05-10T22:27:12.281Z,13.96
2023-05-10T22:29:44.298Z,14.28
2023-05-10T22:32:15.219Z,14.23
2023-05-10T22:34:46.288Z,14.23
2023-05-10T22:37:17.848Z,14.23
2023-05-10T22:39:55.162Z,14.02
2023-05-10T22:42:23.155Z,14.04
2023-05-10T22:45:01.509Z,14.14
2023-05-10T22:47:33.840Z,13.85
2023-05-10T22:50:05.204Z,13.90
2023-05-10T22:52:36.133Z,14.00
2023-05-10T22:55:06.314Z,13.87
2023-05-10T22:57:36.226Z,13.72
2023-05-10T23:00:14.715Z,13.71
2023-05-10T23:02:43.948Z,13.69
2023-05-10T23:05:11.950Z,13.76
2023-05-10T23:07:40.625Z,13.71
2023-05-10T23:10:19.732Z,13.61
2023-05-10T23:12:47.942Z,13.68
2023-05-10T23:15:19.385Z,13.69
2023-05-10T23:17:49.289Z,13.75
2023-05-10T23:20:21.496Z,13.89
2023-05-10T23:22:50.970Z,13.60
2023-05-10T23:25:21.138Z,13.78
2023-05-10T23:27:49.377Z,13.61
2023-05-10T23:30:19.331Z,13.61
2023-05-10T23:32:48.983Z,13.55
2023-05-10T23:35:18.568Z,13.55
2023-05-10T23:37:46.489Z,13.55
2023-05-10T23:40:16.619Z,13.81
2023-05-10T23:42:48.884Z,13.44
2023-05-10T23:45:21.370Z,13.53
2023-05-10T23:47:51.963Z,13.47
2023-05-10T23:50:23.959Z,13.43
2023-05-10T23:52:53.548Z,13.37
2023-05-10T23:55:23.948Z,13.38
2023-05-10T23:57:58.863Z,13.27
